createdAt,value
2022-09-20T00:01:22.116Z,11.70
2022-09-20T00:03:54.421Z,11.80
2022-09-20T00:06:29.905Z,11.80
2022-09-20T00:11:26.446Z,11.80
2022-09-20T00:13:55.999Z,11.80
2022-09-20T00:16:25.980Z,11.80
2022-09-20T00:18:54.614Z,11.80
2022-09-20T00:21:27.044Z,11.80
2022-09-20T00:23:54.128Z,11.90
2022-09-20T00:26:20.890Z,11.90
2022-09-20T00:31:15.726Z,11.90
2022-09-20T00:34:01.048Z,11.90
2022-09-20T00:39:00.459Z,10.00
2022-09-20T00:43:55.337Z,12.00
2022-09-20T00:46:39.143Z,12.00
2022-09-20T00:49:27.538Z,12.00
2022-09-20T00:52:02.150Z,12.00
2022-09-20T00:54:31.118Z,12.00
2022-09-20T00:56:58.046Z,12.00
2022-09-20T00:59:33.058Z,12.00
2022-09-20T01:02:26.035Z,12.00
2022-09-20T01:04:53.113Z,11.90
2022-09-20T01:07:24.826Z,12.00
2022-09-20T01:09:51.939Z,12.00
2022-09-20T01:12:22.441Z,12.00
2022-09-20T01:14:51.517Z,12.00
2022-09-20T01:17:22.436Z,12.10
2022-09-20T01:20:09.898Z,12.00
2022-09-20T01:22:58.155Z,12.10
2022-09-20T01:25:59.304Z,12.00
2022-09-20T01:28:28.563Z,12.00
2022-09-20T01:31:16.294Z,12.10
2022-09-20T01:34:04.201Z,12.10
2022-09-20T01:37:14.783Z,12.10
2022-09-20T01:40:05.774Z,12.00
2022-09-20T01:42:36.503Z,12.00
2022-09-20T01:45:12.115Z,12.10
2022-09-20T01:48:20.445Z,12.00
2022-09-20T01:51:24.297Z,12.00
2022-09-20T01:54:12.639Z,12.10
2022-09-20T01:57:01.659Z,12.10
2022-09-20T01:59:49.675Z,12.10
2022-09-20T02:02:39.018Z,12.00
2022-09-20T02:05:17.401Z,12.00
2022-09-20T02:08:09.554Z,12.00
2022-09-20T02:10:51.206Z,12.10
2022-09-20T02:13:40.567Z,12.00
2022-09-20T02:16:16.694Z,12.00
2022-09-20T02:21:34.691Z,12.10
2022-09-20T02:24:18.292Z,12.10
2022-09-20T02:27:19.862Z,12.00
2022-09-20T02:32:46.131Z,12.10
2022-09-20T02:35:47.671Z,12.10
2022-09-20T02:38:23.190Z,12.10
2022-09-20T02:41:10.668Z,12.10
2022-09-20T02:44:15.425Z,12.10
2022-09-20T02:47:03.854Z,12.10
2022-09-20T02:50:01.065Z,12.10
2022-09-20T02:52:42.471Z,12.10
2022-09-20T02:55:40.933Z,12.10
2022-09-20T02:58:31.260Z,12.10
2022-09-20T03:01:25.097Z,12.10
2022-09-20T03:04:18.854Z,12.10
2022-09-20T03:07:19.566Z,12.10
2022-09-20T03:10:00.402Z,12.10
2022-09-20T03:12:39.126Z,12.00
2022-09-20T03:15:35.831Z,12.00
2022-09-20T03:18:14.626Z,12.10
2022-09-20T03:21:09.141Z,12.10
2022-09-20T03:24:05.888Z,12.10
2022-09-20T03:26:53.628Z,12.00
2022-09-20T03:29:47.140Z,12.10
2022-09-20T03:32:44.351Z,12.10
2022-09-20T03:35:23.193Z,12.10
2022-09-20T03:38:14.137Z,12.00
2022-09-20T03:41:08.697Z,11.90
2022-09-20T03:43:41.466Z,12.00
2022-09-20T03:46:21.404Z,12.10
2022-09-20T03:49:09.460Z,12.10
2022-09-20T03:51:44.845Z,12.10
2022-09-20T03:54:26.475Z,12.00
2022-09-20T03:57:06.512Z,12.00
2022-09-20T03:59:54.902Z,12.00
2022-09-20T04:02:55.920Z,12.00
2022-09-20T04:05:54.787Z,12.00
2022-09-20T04:08:50.841Z,12.00
2022-09-20T04:11:46.101Z,12.00
2022-09-20T04:14:27.791Z,12.00
2022-09-20T04:17:15.800Z,12.00
2022-09-20T04:19:56.962Z,12.00
2022-09-20T04:22:26.527Z,12.00
2022-09-20T04:24:56.526Z,12.00
2022-09-20T04:27:35.409Z,12.00
2022-09-20T04:30:18.108Z,12.00
2022-09-20T04:33:13.159Z,12.00
2022-09-20T04:36:04.413Z,12.00
2022-09-20T04:38:31.438Z,11.90
2022-09-20T04:44:01.982Z,12.00
2022-09-20T04:47:02.787Z,12.00
2022-09-20T04:49:35.083Z,12.00
2022-09-20T04:52:38.957Z,12.00
2022-09-20T04:55:40.918Z,12.00
2022-09-20T04:58:36.259Z,12.00
2022-09-20T05:01:16.684Z,12.00
2022-09-20T05:04:11.421Z,12.00
2022-09-20T05:06:41.108Z,11.90
2022-09-20T05:09:33.314Z,11.90
2022-09-20T05:12:35.482Z,11.90
2022-09-20T05:15:23.394Z,12.00
2022-09-20T05:18:14.153Z,12.00
2022-09-20T05:20:52.792Z,12.00
2022-09-20T05:24:00.947Z,11.90
2022-09-20T05:26:49.429Z,12.00
2022-09-20T05:29:45.012Z,12.00
2022-09-20T05:32:19.271Z,12.00
2022-09-20T05:35:27.142Z,12.10
2022-09-20T05:38:11.611Z,12.00
2022-09-20T05:41:09.287Z,12.10
2022-09-20T05:44:00.820Z,12.10
2022-09-20T05:49:16.041Z,12.20
2022-09-20T05:51:53.002Z,12.20
2022-09-20T05:54:59.886Z,12.20
2022-09-20T05:57:48.468Z,12.30
2022-09-20T06:00:20.938Z,12.20
2022-09-20T06:03:05.842Z,12.40
2022-09-20T06:06:01.063Z,12.40
2022-09-20T06:08:30.818Z,12.40
2022-09-20T06:11:00.478Z,12.40
2022-09-20T06:13:36.227Z,12.50
2022-09-20T06:16:04.636Z,12.50
2022-09-20T06:19:01.044Z,12.50
2022-09-20T06:21:54.857Z,12.60
2022-09-20T06:24:50.276Z,12.60
2022-09-20T06:27:28.266Z,12.70
2022-09-20T06:30:01.820Z,12.80
2022-09-20T06:32:28.517Z,12.90
2022-09-20T06:34:55.245Z,12.90
2022-09-20T06:37:49.026Z,13.00
2022-09-20T06:40:58.902Z,13.10
2022-09-20T06:43:25.557Z,13.10
2022-09-20T06:45:52.316Z,13.10
2022-09-20T06:48:19.218Z,13.10
2022-09-20T06:53:21.443Z,13.00
2022-09-20T06:55:48.188Z,13.00
2022-09-20T06:58:15.225Z,13.00
2022-09-20T07:00:41.877Z,13.10
2022-09-20T07:03:08.624Z,13.30
2022-09-20T07:08:03.396Z,13.80
2022-09-20T07:10:30.903Z,14.00
2022-09-20T07:12:59.382Z,14.10
2022-09-20T07:15:33.219Z,14.20
2022-09-20T07:22:54.498Z,14.20
2022-09-20T07:25:21.643Z,14.00
2022-09-20T07:27:50.630Z,14.00
2022-09-20T07:30:19.463Z,13.90
2022-09-20T07:35:13.690Z,14.10
2022-09-20T07:40:10.809Z,14.10
2022-09-20T07:42:37.654Z,14.20
2022-09-20T07:47:33.041Z,14.30
2022-09-20T07:50:00.005Z,14.30
2022-09-20T07:59:48.379Z,14.90
2022-09-20T08:02:16.467Z,15.10
2022-09-20T08:07:10.726Z,15.40
2022-09-20T08:17:20.303Z,15.20
2022-09-20T08:22:14.345Z,15.10
2022-09-20T08:27:08.943Z,15.00
2022-09-20T08:29:35.576Z,15.00
2022-09-20T08:42:44.859Z,15.30
2022-09-20T08:48:05.571Z,15.90
2022-09-20T08:53:04.992Z,16.30
2022-09-20T08:55:39.973Z,16.40
2022-09-20T08:58:10.937Z,16.60
2022-09-20T09:00:39.622Z,16.90
2022-09-20T09:03:12.267Z,16.90
2022-09-20T09:05:44.129Z,16.80
2022-09-20T09:08:16.733Z,16.60
2022-09-20T09:13:28.385Z,16.60
2022-09-20T09:16:02.943Z,16.20
2022-09-20T09:18:37.407Z,16.10
2022-09-20T09:21:05.896Z,15.90
2022-09-20T09:23:44.488Z,15.70
2022-09-20T09:28:44.020Z,15.60
2022-09-20T09:31:23.122Z,15.60
2022-09-20T09:36:23.489Z,15.40
2022-09-20T09:41:25.189Z,15.30
2022-09-20T09:44:20.036Z,15.30
2022-09-20T09:46:46.999Z,15.20
2022-09-20T09:49:17.148Z,15.30
2022-09-20T09:52:14.517Z,15.30
2022-09-20T09:57:36.556Z,15.30
2022-09-20T10:11:00.777Z,15.30
2022-09-20T10:13:45.940Z,15.30
2022-09-20T10:16:51.397Z,15.30
2022-09-20T10:19:24.726Z,15.30
2022-09-20T10:24:21.618Z,15.30
2022-09-20T10:26:51.391Z,15.20
2022-09-20T10:29:33.041Z,15.40
2022-09-20T10:32:37.190Z,15.60
2022-09-20T10:35:15.713Z,15.80
2022-09-20T10:38:11.859Z,15.90
2022-09-20T10:41:34.371Z,16.20
2022-09-20T10:44:19.234Z,16.60
2022-09-20T10:46:51.809Z,16.60
2022-09-20T10:49:23.894Z,16.90
2022-09-20T10:52:32.138Z,17.20
2022-09-20T10:55:20.383Z,17.50
2022-09-20T10:58:15.349Z,17.50
2022-09-20T11:01:03.086Z,17.30
2022-09-20T11:03:41.534Z,17.20
2022-09-20T11:06:38.537Z,16.80
2022-09-20T11:09:14.011Z,16.40
2022-09-20T11:11:46.626Z,16.20
2022-09-20T11:17:10.671Z,15.80
2022-09-20T11:19:56.486Z,15.70
2022-09-20T11:22:32.571Z,15.50
2022-09-20T11:25:29.456Z,15.60
2022-09-20T11:33:44.260Z,15.70
2022-09-20T11:36:39.427Z,15.70
2022-09-20T11:39:21.456Z,15.60
2022-09-20T11:41:51.814Z,15.70
2022-09-20T11:44:20.221Z,15.50
2022-09-20T11:49:29.177Z,15.20
2022-09-20T11:52:13.621Z,15.10
2022-09-20T11:54:54.689Z,15.10
2022-09-20T11:57:23.133Z,15.30
2022-09-20T12:02:33.950Z,15.70
2022-09-20T12:05:01.951Z,15.70
2022-09-20T12:07:38.018Z,15.90
2022-09-20T12:10:27.553Z,16.30
2022-09-20T12:13:06.665Z,16.50
2022-09-20T12:15:39.206Z,16.70
2022-09-20T12:23:40.660Z,16.80
2022-09-20T12:26:10.675Z,16.70
2022-09-20T12:28:39.024Z,16.60
2022-09-20T12:31:32.016Z,16.40
2022-09-20T12:34:03.119Z,16.20
2022-09-20T12:36:36.117Z,15.90
2022-09-20T12:42:21.564Z,15.80
2022-09-20T12:44:50.998Z,15.90
2022-09-20T12:47:19.523Z,16.10
2022-09-20T12:50:04.872Z,16.30
2022-09-20T12:52:58.973Z,16.30
2022-09-20T12:55:29.871Z,16.50
2022-09-20T13:00:36.154Z,16.40
2022-09-20T13:05:52.531Z,16.30
2022-09-20T13:08:23.233Z,16.30
2022-09-20T13:11:00.450Z,16.20
2022-09-20T13:15:57.034Z,16.70
2022-09-20T13:18:26.199Z,16.90
2022-09-20T13:23:29.649Z,17.30
2022-09-20T13:25:58.229Z,17.40
2022-09-20T13:28:31.317Z,17.30
2022-09-20T13:31:22.630Z,17.30
2022-09-20T13:33:49.731Z,17.40
2022-09-20T13:36:29.089Z,17.30
2022-09-20T13:38:57.653Z,17.30
2022-09-20T13:41:29.045Z,17.20
2022-09-20T13:43:56.489Z,17.30
2022-09-20T13:46:28.822Z,17.20
2022-09-20T13:49:24.455Z,17.00
2022-09-20T13:51:52.023Z,16.70
2022-09-20T13:56:46.102Z,16.80
2022-09-20T13:59:19.329Z,16.80
2022-09-20T14:01:55.794Z,16.70
2022-09-20T14:04:25.828Z,16.80
2022-09-20T14:06:54.909Z,16.60
2022-09-20T14:09:32.821Z,16.30
2022-09-20T14:12:00.632Z,16.00
2022-09-20T14:14:28.808Z,15.70
2022-09-20T14:16:58.016Z,15.70
2022-09-20T14:19:32.849Z,15.60
2022-09-20T14:22:03.941Z,15.60
2022-09-20T14:24:36.491Z,15.50
2022-09-20T14:27:05.894Z,15.40
2022-09-20T14:29:56.750Z,15.40
2022-09-20T14:32:35.041Z,15.40
2022-09-20T14:35:07.203Z,15.40
2022-09-20T14:37:48.255Z,15.40
2022-09-20T14:40:20.985Z,15.30
2022-09-20T14:42:51.654Z,15.40
2022-09-20T14:45:30.627Z,15.40
2022-09-20T14:48:09.546Z,15.40
2022-09-20T14:50:40.842Z,15.50
2022-09-20T14:53:10.806Z,15.50
2022-09-20T14:55:39.555Z,15.50
2022-09-20T14:58:15.750Z,15.60
2022-09-20T15:00:59.204Z,15.60
2022-09-20T15:03:30.940Z,15.60
2022-09-20T15:08:25.083Z,15.60
2022-09-20T15:10:51.843Z,15.60
2022-09-20T15:13:18.846Z,15.70
2022-09-20T15:15:49.921Z,15.70
2022-09-20T15:18:34.293Z,15.80
2022-09-20T15:23:28.486Z,15.70
2022-09-20T15:25:55.663Z,15.80
2022-09-20T15:28:22.564Z,15.90
2022-09-20T15:30:51.143Z,16.00
2022-09-20T15:33:20.066Z,16.00
2022-09-20T15:35:47.511Z,16.20
2022-09-20T15:38:17.705Z,16.30
2022-09-20T15:40:47.248Z,16.50
2022-09-20T15:43:17.016Z,16.60
2022-09-20T15:45:50.081Z,16.60
2022-09-20T15:48:22.193Z,16.70
2022-09-20T15:51:01.895Z,16.70
2022-09-20T15:53:36.731Z,16.70
2022-09-20T15:56:13.367Z,16.70
2022-09-20T15:58:46.731Z,16.70
2022-09-20T16:01:16.464Z,16.70
2022-09-20T16:03:44.852Z,16.70
2022-09-20T16:06:12.334Z,16.80
2022-09-20T16:08:43.339Z,16.90
2022-09-20T16:11:13.641Z,16.90
2022-09-20T16:13:40.681Z,16.80
2022-09-20T16:16:09.654Z,16.80
2022-09-20T16:18:55.050Z,16.50
2022-09-20T16:21:22.632Z,16.30
2022-09-20T16:23:52.539Z,16.10
2022-09-20T16:26:21.179Z,16.00
2022-09-20T16:31:41.995Z,15.80
2022-09-20T16:34:30.517Z,15.70
2022-09-20T16:37:02.964Z,15.70
2022-09-20T16:39:31.296Z,15.60
2022-09-20T16:42:06.301Z,15.60
2022-09-20T16:44:35.131Z,15.60
2022-09-20T16:51:56.669Z,15.40
2022-09-20T16:56:56.495Z,15.30
2022-09-20T16:59:23.633Z,15.30
2022-09-20T17:01:51.182Z,15.30
2022-09-20T17:09:14.407Z,15.10
2022-09-20T17:11:45.616Z,15.10
2022-09-20T17:14:13.181Z,15.00
2022-09-20T17:16:41.609Z,15.10
2022-09-20T17:19:13.368Z,15.00
2022-09-20T17:21:43.662Z,14.90
2022-09-20T17:26:44.306Z,14.90
2022-09-20T17:29:13.898Z,14.70
2022-09-20T17:31:42.648Z,14.70
2022-09-20T17:34:11.688Z,14.70
2022-09-20T17:36:46.060Z,14.70
2022-09-20T17:39:14.043Z,14.70
2022-09-20T17:41:43.013Z,14.70
2022-09-20T17:44:10.139Z,14.60
2022-09-20T17:46:38.627Z,14.60
2022-09-20T17:49:18.085Z,14.50
2022-09-20T17:51:55.499Z,14.50
2022-09-20T17:54:24.057Z,14.30
2022-09-20T17:56:53.398Z,14.30
2022-09-20T17:59:20.724Z,14.30
2022-09-20T18:01:49.535Z,14.20
2022-09-20T18:06:48.614Z,14.10
2022-09-20T18:09:25.608Z,14.00
2022-09-20T18:11:53.866Z,13.90
2022-09-20T18:14:37.855Z,13.80
2022-09-20T18:17:05.544Z,13.60
2022-09-20T18:22:02.123Z,13.40
2022-09-20T18:24:30.053Z,13.50
2022-09-20T18:31:57.737Z,13.50
2022-09-20T18:34:30.989Z,13.60
2022-09-20T18:36:59.845Z,13.60
2022-09-20T18:39:28.966Z,13.50
2022-09-20T18:41:55.870Z,13.50
2022-09-20T18:44:24.605Z,13.50
2022-09-20T18:46:54.978Z,13.40
2022-09-20T18:49:22.356Z,13.40
2022-09-20T18:51:49.515Z,13.30
2022-09-20T18:54:16.464Z,13.20
2022-09-20T18:56:45.379Z,13.20
2022-09-20T18:59:16.291Z,13.10
2022-09-20T19:01:55.075Z,13.30
2022-09-20T19:05:06.777Z,13.40
2022-09-20T19:07:39.259Z,13.30
2022-09-20T19:10:05.964Z,13.30
2022-09-20T19:12:49.826Z,13.30
2022-09-20T19:15:29.750Z,13.30
2022-09-20T19:18:58.759Z,13.20
2022-09-20T19:24:34.066Z,13.00
2022-09-20T19:27:00.871Z,12.90
2022-09-20T19:29:28.762Z,12.80
2022-09-20T19:31:58.815Z,12.80
2022-09-20T19:34:31.035Z,12.70
2022-09-20T19:37:20.543Z,12.60
2022-09-20T19:40:11.577Z,12.60
2022-09-20T19:43:00.114Z,12.60
2022-09-20T19:45:32.532Z,12.60
2022-09-20T19:48:16.566Z,12.60
2022-09-20T19:50:46.298Z,12.60
2022-09-20T19:53:15.030Z,12.60
2022-09-20T19:55:47.124Z,12.60
2022-09-20T19:58:15.589Z,12.60
2022-09-20T20:00:46.964Z,12.60
2022-09-20T20:03:15.485Z,12.70
2022-09-20T20:05:56.062Z,12.60
2022-09-20T20:09:00.027Z,12.60
2022-09-20T20:14:20.412Z,12.50
2022-09-20T20:17:07.866Z,12.40
2022-09-20T20:19:50.680Z,12.40
2022-09-20T20:22:39.236Z,12.30
2022-09-20T20:25:18.807Z,12.30
2022-09-20T20:27:45.611Z,12.30
2022-09-20T20:35:07.765Z,12.20
2022-09-20T20:37:34.901Z,12.20
2022-09-20T20:49:53.402Z,12.00
2022-09-20T20:52:20.138Z,11.90
2022-09-20T20:57:18.932Z,11.80
2022-09-20T21:14:33.726Z,11.40
2022-09-20T21:19:28.640Z,11.40
2022-09-20T21:21:55.294Z,11.30
2022-09-20T21:26:50.265Z,11.20
2022-09-20T21:29:17.044Z,11.10
2022-09-20T21:31:45.570Z,11.20
2022-09-20T21:34:13.877Z,11.20
2022-09-20T21:36:47.172Z,11.20
2022-09-20T21:39:13.946Z,11.10
2022-09-20T21:41:41.057Z,11.20
2022-09-20T21:44:10.525Z,11.20
2022-09-20T21:46:41.947Z,11.20
2022-09-20T21:49:12.746Z,11.30
2022-09-20T21:51:45.104Z,11.30
2022-09-20T21:56:40.970Z,11.20
2022-09-20T21:59:08.003Z,11.30
2022-09-20T22:01:37.719Z,11.30
2022-09-20T22:04:11.700Z,11.20
2022-09-20T22:06:43.303Z,11.20
2022-09-20T22:09:12.068Z,11.20
2022-09-20T22:11:41.925Z,11.10
2022-09-20T22:16:38.464Z,11.00
2022-09-20T22:19:07.757Z,11.00
2022-09-20T22:21:37.348Z,10.90
2022-09-20T22:24:07.714Z,10.80
2022-09-20T22:26:36.878Z,10.70
2022-09-20T22:31:33.097Z,10.60
2022-09-20T22:34:03.888Z,10.60
2022-09-20T22:36:35.846Z,10.40
2022-09-20T22:39:04.673Z,10.40
2022-09-20T22:41:31.437Z,10.40
2022-09-20T22:46:28.209Z,10.20
2022-09-20T22:48:56.342Z,10.30
2022-09-20T22:51:24.268Z,10.20
2022-09-20T22:53:52.645Z,10.20
2022-09-20T22:56:31.103Z,10.20
2022-09-20T22:59:00.304Z,10.20
2022-09-20T23:01:32.215Z,10.20
2022-09-20T23:04:04.477Z,10.20
2022-09-20T23:06:41.633Z,10.20
2022-09-20T23:09:10.788Z,10.20
2022-09-20T23:11:43.097Z,10.10
2022-09-20T23:14:15.030Z,10.10
2022-09-20T23:16:42.042Z,10.00
2022-09-20T23:19:09.532Z,10.00
2022-09-20T23:21:38.147Z,10.00
2022-09-20T23:24:07.452Z,10.00
2022-09-20T23:26:36.463Z,9.90
2022-09-20T23:29:06.178Z,9.90
2022-09-20T23:31:34.543Z,9.80
2022-09-20T23:34:02.655Z,9.90
2022-09-20T23:36:31.670Z,9.80
2022-09-20T23:38:58.662Z,9.80
2022-09-20T23:41:27.053Z,9.70
2022-09-20T23:43:54.283Z,9.70
2022-09-20T23:46:22.775Z,9.60
2022-09-20T23:48:52.783Z,9.60
2022-09-20T23:51:22.509Z,9.50
2022-09-20T23:53:50.232Z,9.50
2022-09-20T23:56:17.385Z,9.50
2022-09-20T23:58:45.015Z,9.40
